Terminal Aerodrome Forecast
Issued by NWS Wilmington, OH

Current Version | Previous Version | Graphics & Text | Print | Product List | Glossary On
Versions: 1 2 3 4 5 6 7 8 9 10 11 12 13 14 15 16 17 18 19 20 21 22 23 24 25 26 27 28 29
627
FTUS41 KILN 151729
TAFCVG
TAF
KCVG 151729Z 1518/1624 06006KT 2SM -RADZ BR OVC004
     FM160000 07005KT P6SM VCSH OVC006
     FM160500 08006KT 4SM -DZ BR OVC006
     FM161500 12006KT P6SM OVC012=

USA.gov is the U.S. government's official web portal to all federal, state and local government web resources and services.